sensor_id;sensor_type;location;lat;lon;timestamp;P1;durP1;ratioP1;P2;durP2;ratioP2
38379;SDS011;38377;47.418;18.882;2023-12-14T06:09:39;47.08;;;19.10;;
38379;SDS011;38377;47.418;18.882;2023-12-14T06:12:04;52.83;;;22.33;;
38379;SDS011;38377;47.418;18.882;2023-12-14T06:14:30;48.15;;;19.42;;
38379;SDS011;38377;47.418;18.882;2023-12-14T06:22:41;50.45;;;20.33;;
38379;SDS011;38377;47.418;18.882;2023-12-14T06:27:34;48.43;;;21.20;;
38379;SDS011;38377;47.418;18.882;2023-12-14T06:30:00;46.55;;;19.80;;
38379;SDS011;38377;47.418;18.882;2023-12-14T06:32:38;44.63;;;18.80;;
38379;SDS011;38377;47.418;18.882;2023-12-14T06:36:08;47.97;;;19.15;;
38379;SDS011;38377;47.418;18.882;2023-12-14T06:42:23;50.53;;;20.93;;
38379;SDS011;38377;47.418;18.882;2023-12-14T06:44:52;44.03;;;19.23;;
38379;SDS011;38377;47.418;18.882;2023-12-14T06:47:18;44.78;;;20.15;;
38379;SDS011;38377;47.418;18.882;2023-12-14T06:52:42;51.80;;;21.20;;
38379;SDS011;38377;47.418;18.882;2023-12-14T06:55:19;45.30;;;20.60;;
38379;SDS011;38377;47.418;18.882;2023-12-14T06:57:45;41.55;;;18.17;;
38379;SDS011;38377;47.418;18.882;2023-12-14T07:00:14;48.55;;;19.25;;
38379;SDS011;38377;47.418;18.882;2023-12-14T07:02:40;49.00;;;20.15;;
38379;SDS011;38377;47.418;18.882;2023-12-14T07:05:06;46.75;;;18.50;;
38379;SDS011;38377;47.418;18.882;2023-12-14T07:07:32;55.50;;;24.85;;
38379;SDS011;38377;47.418;18.882;2023-12-14T07:09:58;54.28;;;22.45;;
38379;SDS011;38377;47.418;18.882;2023-12-14T07:12:23;45.90;;;20.67;;
38379;SDS011;38377;47.418;18.882;2023-12-14T07:14:49;48.38;;;22.60;;
38379;SDS011;38377;47.418;18.882;2023-12-14T07:17:15;42.22;;;20.70;;
38379;SDS011;38377;47.418;18.882;2023-12-14T07:19:41;47.45;;;22.05;;
38379;SDS011;38377;47.418;18.882;2023-12-14T07:22:06;47.78;;;23.65;;
38379;SDS011;38377;47.418;18.882;2023-12-14T07:24:32;48.50;;;23.42;;
38379;SDS011;38377;47.418;18.882;2023-12-14T07:26:58;45.25;;;21.75;;
38379;SDS011;38377;47.418;18.882;2023-12-14T07:29:24;41.30;;;19.77;;
38379;SDS011;38377;47.418;18.882;2023-12-14T07:31:50;40.58;;;18.25;;
38379;SDS011;38377;47.418;18.882;2023-12-14T07:34:15;42.40;;;19.42;;
38379;SDS011;38377;47.418;18.882;2023-12-14T07:36:41;46.58;;;21.08;;
38379;SDS011;38377;47.418;18.882;2023-12-14T07:39:07;39.70;;;19.80;;
38379;SDS011;38377;47.418;18.882;2023-12-14T07:41:34;48.75;;;20.02;;
38379;SDS011;38377;47.418;18.882;2023-12-14T07:44:00;60.75;;;29.13;;
38379;SDS011;38377;47.418;18.882;2023-12-14T07:46:26;46.50;;;21.20;;
38379;SDS011;38377;47.418;18.882;2023-12-14T07:48:52;46.55;;;21.13;;
38379;SDS011;38377;47.418;18.882;2023-12-14T07:51:18;53.90;;;23.80;;
38379;SDS011;38377;47.418;18.882;2023-12-14T07:53:46;41.67;;;20.58;;
38379;SDS011;38377;47.418;18.882;2023-12-14T07:56:12;42.97;;;20.73;;
38379;SDS011;38377;47.418;18.882;2023-12-14T08:01:54;43.78;;;21.58;;
38379;SDS011;38377;47.418;18.882;2023-12-14T08:04:20;44.53;;;21.10;;
38379;SDS011;38377;47.418;18.882;2023-12-14T08:24:03;55.60;;;30.60;;
38379;SDS011;38377;47.418;18.882;2023-12-14T08:26:29;48.80;;;23.35;;
38379;SDS011;38377;47.418;18.882;2023-12-14T08:28:57;45.20;;;23.08;;
38379;SDS011;38377;47.418;18.882;2023-12-14T08:31:24;43.78;;;21.58;;
38379;SDS011;38377;47.418;18.882;2023-12-14T08:33:50;45.83;;;20.90;;
38379;SDS011;38377;47.418;18.882;2023-12-14T08:36:17;41.08;;;20.30;;
38379;SDS011;38377;47.418;18.882;2023-12-14T08:38:43;44.33;;;22.75;;
38379;SDS011;38377;47.418;18.882;2023-12-14T08:41:12;39.15;;;20.05;;
38379;SDS011;38377;47.418;18.882;2023-12-14T08:43:41;42.00;;;19.52;;
38379;SDS011;38377;47.418;18.882;2023-12-14T08:46:07;40.45;;;20.35;;
38379;SDS011;38377;47.418;18.882;2023-12-14T08:48:33;36.80;;;19.52;;
38379;SDS011;38377;47.418;18.882;2023-12-14T08:51:00;38.58;;;19.33;;
38379;SDS011;38377;47.418;18.882;2023-12-14T08:53:26;38.58;;;19.13;;
38379;SDS011;38377;47.418;18.882;2023-12-14T08:55:53;37.67;;;18.42;;
38379;SDS011;38377;47.418;18.882;2023-12-14T08:58:19;40.65;;;19.98;;
38379;SDS011;38377;47.418;18.882;2023-12-14T09:00:45;42.08;;;19.80;;
38379;SDS011;38377;47.418;18.882;2023-12-14T09:03:11;39.20;;;19.17;;
38379;SDS011;38377;47.418;18.882;2023-12-14T09:05:37;36.05;;;19.58;;
38379;SDS011;38377;47.418;18.882;2023-12-14T09:08:07;39.72;;;19.95;;
38379;SDS011;38377;47.418;18.882;2023-12-14T09:10:33;38.75;;;20.23;;
38379;SDS011;38377;47.418;18.882;2023-12-14T09:12:59;37.15;;;18.38;;
38379;SDS011;38377;47.418;18.882;2023-12-14T09:15:29;43.58;;;19.98;;
38379;SDS011;38377;47.418;18.882;2023-12-14T09:17:56;38.38;;;19.98;;
38379;SDS011;38377;47.418;18.882;2023-12-14T09:20:21;40.53;;;22.17;;
38379;SDS011;38377;47.418;18.882;2023-12-14T09:22:51;41.22;;;21.58;;
38379;SDS011;38377;47.418;18.882;2023-12-14T09:25:17;36.08;;;20.77;;
38379;SDS011;38377;47.418;18.882;2023-12-14T09:27:44;37.58;;;21.52;;
38379;SDS011;38377;47.418;18.882;2023-12-14T09:30:10;39.28;;;22.50;;
38379;SDS011;38377;47.418;18.882;2023-12-14T09:32:36;39.05;;;22.23;;
38379;SDS011;38377;47.418;18.882;2023-12-14T09:35:02;39.90;;;22.05;;
38379;SDS011;38377;47.418;18.882;2023-12-14T09:37:28;37.28;;;19.60;;
38379;SDS011;38377;47.418;18.882;2023-12-14T09:39:53;36.13;;;21.05;;
38379;SDS011;38377;47.418;18.882;2023-12-14T09:42:20;34.92;;;19.52;;
38379;SDS011;38377;47.418;18.882;2023-12-14T09:44:46;32.50;;;17.90;;
38379;SDS011;38377;47.418;18.882;2023-12-14T09:47:13;32.70;;;17.92;;
38379;SDS011;38377;47.418;18.882;2023-12-14T09:49:39;36.45;;;20.25;;
38379;SDS011;38377;47.418;18.882;2023-12-14T09:52:11;33.08;;;19.17;;
38379;SDS011;38377;47.418;18.882;2023-12-14T09:54:37;34.65;;;19.67;;
38379;SDS011;38377;47.418;18.882;2023-12-14T09:57:03;33.58;;;19.73;;
38379;SDS011;38377;47.418;18.882;2023-12-14T09:59:29;32.25;;;18.40;;
38379;SDS011;38377;47.418;18.882;2023-12-14T10:02:11;31.65;;;17.50;;
38379;SDS011;38377;47.418;18.882;2023-12-14T10:04:37;33.83;;;18.60;;
38379;SDS011;38377;47.418;18.882;2023-12-14T10:07:03;30.23;;;16.88;;
38379;SDS011;38377;47.418;18.882;2023-12-14T10:09:32;32.60;;;18.98;;
38379;SDS011;38377;47.418;18.882;2023-12-14T10:12:08;30.05;;;18.85;;
38379;SDS011;38377;47.418;18.882;2023-12-14T10:14:35;30.08;;;17.30;;
38379;SDS011;38377;47.418;18.882;2023-12-14T10:19:42;21.00;;;12.98;;
38379;SDS011;38377;47.418;18.882;2023-12-14T10:22:09;31.45;;;17.42;;
38379;SDS011;38377;47.418;18.882;2023-12-14T10:24:38;29.58;;;16.52;;
38379;SDS011;38377;47.418;18.882;2023-12-14T10:27:05;31.27;;;17.52;;
38379;SDS011;38377;47.418;18.882;2023-12-14T10:29:34;31.83;;;18.77;;
38379;SDS011;38377;47.418;18.882;2023-12-14T10:32:03;31.33;;;19.00;;
38379;SDS011;38377;47.418;18.882;2023-12-14T10:34:32;30.92;;;18.35;;
38379;SDS011;38377;47.418;18.882;2023-12-14T10:36:58;32.45;;;18.48;;
38379;SDS011;38377;47.418;18.882;2023-12-14T10:39:24;31.23;;;18.15;;
38379;SDS011;38377;47.418;18.882;2023-12-14T11:41:24;24.90;;;15.60;;
38379;SDS011;38377;47.418;18.882;2023-12-14T11:46:24;25.40;;;14.13;;
38379;SDS011;38377;47.418;18.882;2023-12-14T11:52:14;21.52;;;13.07;;
38379;SDS011;38377;47.418;18.882;2023-12-14T11:54:52;22.70;;;14.68;;
38379;SDS011;38377;47.418;18.882;2023-12-14T12:03:55;18.48;;;11.30;;
38379;SDS011;38377;47.418;18.882;2023-12-14T12:06:42;22.10;;;13.38;;
38379;SDS011;38377;47.418;18.882;2023-12-14T12:09:10;18.23;;;12.15;;
38379;SDS011;38377;47.418;18.882;2023-12-14T12:11:37;20.23;;;13.13;;
38379;SDS011;38377;47.418;18.882;2023-12-14T12:14:27;18.77;;;11.57;;
38379;SDS011;38377;47.418;18.882;2023-12-14T12:20:13;19.77;;;13.60;;
38379;SDS011;38377;47.418;18.882;2023-12-14T12:22:39;18.88;;;12.45;;
38379;SDS011;38377;47.418;18.882;2023-12-14T12:25:31;20.08;;;12.55;;
38379;SDS011;38377;47.418;18.882;2023-12-14T12:28:00;21.13;;;13.35;;
38379;SDS011;38377;47.418;18.882;2023-12-14T12:30:29;19.27;;;12.80;;
38379;SDS011;38377;47.418;18.882;2023-12-14T12:33:11;20.17;;;12.65;;
38379;SDS011;38377;47.418;18.882;2023-12-14T12:36:20;27.58;;;17.00;;
38379;SDS011;38377;47.418;18.882;2023-12-14T12:38:54;21.77;;;14.48;;
38379;SDS011;38377;47.418;18.882;2023-12-14T12:41:30;24.40;;;15.80;;
38379;SDS011;38377;47.418;18.882;2023-12-14T12:44:23;22.75;;;14.45;;
38379;SDS011;38377;47.418;18.882;2023-12-14T13:01:18;22.65;;;15.38;;
38379;SDS011;38377;47.418;18.882;2023-12-14T13:13:35;25.27;;;16.02;;
38379;SDS011;38377;47.418;18.882;2023-12-14T13:16:08;22.75;;;14.60;;
38379;SDS011;38377;47.418;18.882;2023-12-14T13:18:47;25.10;;;14.63;;
38379;SDS011;38377;47.418;18.882;2023-12-14T13:22:00;22.35;;;15.63;;
38379;SDS011;38377;47.418;18.882;2023-12-14T13:24:40;25.95;;;15.75;;
38379;SDS011;38377;47.418;18.882;2023-12-14T13:27:20;22.23;;;14.40;;
38379;SDS011;38377;47.418;18.882;2023-12-14T13:32:41;25.05;;;15.05;;
38379;SDS011;38377;47.418;18.882;2023-12-14T13:35:24;23.98;;;15.02;;
38379;SDS011;38377;47.418;18.882;2023-12-14T13:40:44;27.27;;;15.88;;
38379;SDS011;38377;47.418;18.882;2023-12-14T13:43:13;21.02;;;14.65;;
38379;SDS011;38377;47.418;18.882;2023-12-14T13:46:07;21.27;;;14.30;;
38379;SDS011;38377;47.418;18.882;2023-12-14T13:51:46;21.55;;;14.23;;
38379;SDS011;38377;47.418;18.882;2023-12-14T13:54:17;24.88;;;14.98;;
38379;SDS011;38377;47.418;18.882;2023-12-14T13:56:49;23.83;;;15.98;;
38379;SDS011;38377;47.418;18.882;2023-12-14T13:59:14;22.27;;;14.43;;
38379;SDS011;38377;47.418;18.882;2023-12-14T14:01:48;23.90;;;14.77;;
38379;SDS011;38377;47.418;18.882;2023-12-14T14:04:16;24.58;;;13.98;;
38379;SDS011;38377;47.418;18.882;2023-12-14T14:06:44;21.30;;;13.50;;
38379;SDS011;38377;47.418;18.882;2023-12-14T14:09:11;22.08;;;12.77;;
38379;SDS011;38377;47.418;18.882;2023-12-14T14:12:05;22.52;;;14.40;;
38379;SDS011;38377;47.418;18.882;2023-12-14T14:14:33;20.30;;;13.88;;
38379;SDS011;38377;47.418;18.882;2023-12-14T14:17:02;27.08;;;16.48;;
38379;SDS011;38377;47.418;18.882;2023-12-14T14:20:19;21.42;;;13.95;;
38379;SDS011;38377;47.418;18.882;2023-12-14T14:27:00;20.10;;;13.23;;
38379;SDS011;38377;47.418;18.882;2023-12-14T14:29:45;18.50;;;13.05;;
38379;SDS011;38377;47.418;18.882;2023-12-14T14:32:58;21.77;;;13.30;;
38379;SDS011;38377;47.418;18.882;2023-12-14T14:35:48;21.63;;;14.27;;
38379;SDS011;38377;47.418;18.882;2023-12-14T14:38:25;19.08;;;13.23;;
38379;SDS011;38377;47.418;18.882;2023-12-14T14:41:18;21.63;;;13.20;;
38379;SDS011;38377;47.418;18.882;2023-12-14T14:47:45;19.17;;;12.70;;
38379;SDS011;38377;47.418;18.882;2023-12-14T14:54:37;20.23;;;12.65;;
38379;SDS011;38377;47.418;18.882;2023-12-14T14:57:18;21.25;;;13.07;;
38379;SDS011;38377;47.418;18.882;2023-12-14T15:00:11;26.83;;;14.38;;
38379;SDS011;38377;47.418;18.882;2023-12-14T15:02:53;23.05;;;12.98;;
38379;SDS011;38377;47.418;18.882;2023-12-14T15:05:23;21.63;;;13.77;;
38379;SDS011;38377;47.418;18.882;2023-12-14T15:07:59;21.13;;;13.60;;
38379;SDS011;38377;47.418;18.882;2023-12-14T15:10:56;22.92;;;14.82;;
38379;SDS011;38377;47.418;18.882;2023-12-14T15:13:30;21.85;;;14.07;;
38379;SDS011;38377;47.418;18.882;2023-12-14T15:16:05;24.83;;;14.65;;
38379;SDS011;38377;47.418;18.882;2023-12-14T15:18:31;24.27;;;15.25;;
38379;SDS011;38377;47.418;18.882;2023-12-14T15:21:01;22.45;;;14.40;;
38379;SDS011;38377;47.418;18.882;2023-12-14T15:23:28;28.10;;;16.08;;
38379;SDS011;38377;47.418;18.882;2023-12-14T15:25:54;27.58;;;16.05;;
38379;SDS011;38377;47.418;18.882;2023-12-14T15:28:23;24.27;;;14.23;;
38379;SDS011;38377;47.418;18.882;2023-12-14T15:30:49;24.17;;;14.60;;
38379;SDS011;38377;47.418;18.882;2023-12-14T15:33:17;25.40;;;15.40;;
38379;SDS011;38377;47.418;18.882;2023-12-14T15:35:46;20.92;;;13.90;;
38379;SDS011;38377;47.418;18.882;2023-12-14T15:38:14;20.98;;;14.27;;
38379;SDS011;38377;47.418;18.882;2023-12-14T15:40:46;24.00;;;14.52;;
38379;SDS011;38377;47.418;18.882;2023-12-14T15:43:12;22.80;;;15.23;;
38379;SDS011;38377;47.418;18.882;2023-12-14T15:45:39;25.67;;;15.60;;
38379;SDS011;38377;47.418;18.882;2023-12-14T15:48:04;24.75;;;14.95;;
38379;SDS011;38377;47.418;18.882;2023-12-14T15:50:31;24.95;;;15.32;;
38379;SDS011;38377;47.418;18.882;2023-12-14T15:53:01;27.65;;;16.52;;
38379;SDS011;38377;47.418;18.882;2023-12-14T15:55:30;37.05;;;18.23;;
38379;SDS011;38377;47.418;18.882;2023-12-14T15:57:55;32.50;;;18.50;;
38379;SDS011;38377;47.418;18.882;2023-12-14T16:00:28;30.63;;;17.13;;
38379;SDS011;38377;47.418;18.882;2023-12-14T16:02:58;23.88;;;14.88;;
38379;SDS011;38377;47.418;18.882;2023-12-14T16:05:24;27.25;;;16.25;;
38379;SDS011;38377;47.418;18.882;2023-12-14T16:07:59;24.65;;;14.63;;
38379;SDS011;38377;47.418;18.882;2023-12-14T16:10:28;26.42;;;15.98;;
38379;SDS011;38377;47.418;18.882;2023-12-14T16:12:54;27.45;;;15.88;;
38379;SDS011;38377;47.418;18.882;2023-12-14T16:15:31;25.45;;;15.05;;
38379;SDS011;38377;47.418;18.882;2023-12-14T16:18:01;23.08;;;15.10;;
38379;SDS011;38377;47.418;18.882;2023-12-14T16:23:28;25.40;;;16.48;;
38379;SDS011;38377;47.418;18.882;2023-12-14T16:26:04;22.02;;;14.13;;
38379;SDS011;38377;47.418;18.882;2023-12-14T16:28:33;26.15;;;14.80;;
38379;SDS011;38377;47.418;18.882;2023-12-14T16:31:06;26.48;;;14.75;;
38379;SDS011;38377;47.418;18.882;2023-12-14T16:33:39;24.60;;;15.35;;
38379;SDS011;38377;47.418;18.882;2023-12-14T16:36:14;23.17;;;15.23;;
38379;SDS011;38377;47.418;18.882;2023-12-14T16:38:40;24.25;;;15.43;;
38379;SDS011;38377;47.418;18.882;2023-12-14T16:41:10;25.02;;;15.30;;
38379;SDS011;38377;47.418;18.882;2023-12-14T16:43:35;29.45;;;17.35;;
38379;SDS011;38377;47.418;18.882;2023-12-14T16:46:01;28.05;;;16.75;;
38379;SDS011;38377;47.418;18.882;2023-12-14T16:48:29;31.33;;;16.90;;
38379;SDS011;38377;47.418;18.882;2023-12-14T16:50:57;28.25;;;17.02;;
38379;SDS011;38377;47.418;18.882;2023-12-14T16:53:23;27.17;;;17.10;;
38379;SDS011;38377;47.418;18.882;2023-12-14T16:55:49;30.55;;;17.63;;
38379;SDS011;38377;47.418;18.882;2023-12-14T16:58:33;30.73;;;16.85;;
38379;SDS011;38377;47.418;18.882;2023-12-14T17:01:00;28.95;;;18.23;;
38379;SDS011;38377;47.418;18.882;2023-12-14T17:03:26;28.98;;;17.40;;
38379;SDS011;38377;47.418;18.882;2023-12-14T17:05:56;35.53;;;19.52;;
38379;SDS011;38377;47.418;18.882;2023-12-14T17:08:28;30.95;;;18.38;;
38379;SDS011;38377;47.418;18.882;2023-12-14T17:10:56;34.97;;;18.98;;
38379;SDS011;38377;47.418;18.882;2023-12-14T17:13:25;34.83;;;18.77;;
38379;SDS011;38377;47.418;18.882;2023-12-14T17:15:53;32.42;;;18.55;;
38379;SDS011;38377;47.418;18.882;2023-12-14T17:18:21;30.73;;;19.15;;
38379;SDS011;38377;47.418;18.882;2023-12-14T17:20:47;32.90;;;19.20;;
38379;SDS011;38377;47.418;18.882;2023-12-14T17:23:13;29.88;;;18.75;;
38379;SDS011;38377;47.418;18.882;2023-12-14T17:25:42;34.72;;;18.13;;
38379;SDS011;38377;47.418;18.882;2023-12-14T17:28:08;33.20;;;19.63;;
38379;SDS011;38377;47.418;18.882;2023-12-14T17:30:35;31.88;;;19.00;;
38379;SDS011;38377;47.418;18.882;2023-12-14T17:33:03;31.70;;;19.20;;
38379;SDS011;38377;47.418;18.882;2023-12-14T17:35:31;29.98;;;17.92;;
38379;SDS011;38377;47.418;18.882;2023-12-14T17:38:06;33.17;;;19.63;;
38379;SDS011;38377;47.418;18.882;2023-12-14T17:40:34;35.05;;;18.83;;
38379;SDS011;38377;47.418;18.882;2023-12-14T17:43:01;30.13;;;17.85;;
38379;SDS011;38377;47.418;18.882;2023-12-14T17:45:26;30.55;;;17.90;;
38379;SDS011;38377;47.418;18.882;2023-12-14T17:47:52;30.35;;;18.58;;
38379;SDS011;38377;47.418;18.882;2023-12-14T17:50:18;29.27;;;18.83;;
38379;SDS011;38377;47.418;18.882;2023-12-14T17:52:44;30.42;;;18.30;;
38379;SDS011;38377;47.418;18.882;2023-12-14T17:55:10;28.52;;;17.48;;
38379;SDS011;38377;47.418;18.882;2023-12-14T17:57:35;31.17;;;16.65;;
38379;SDS011;38377;47.418;18.882;2023-12-14T18:00:01;25.63;;;15.60;;
38379;SDS011;38377;47.418;18.882;2023-12-14T18:02:28;30.85;;;17.98;;
38379;SDS011;38377;47.418;18.882;2023-12-14T18:05:11;30.73;;;17.10;;
38379;SDS011;38377;47.418;18.882;2023-12-14T18:08:01;28.80;;;17.40;;
38379;SDS011;38377;47.418;18.882;2023-12-14T18:13:59;30.90;;;16.42;;
38379;SDS011;38377;47.418;18.882;2023-12-14T18:17:18;32.08;;;17.30;;
38379;SDS011;38377;47.418;18.882;2023-12-14T18:27:51;27.13;;;16.70;;
38379;SDS011;38377;47.418;18.882;2023-12-14T18:34:03;32.00;;;18.40;;
38379;SDS011;38377;47.418;18.882;2023-12-14T18:37:26;29.85;;;15.88;;
38379;SDS011;38377;47.418;18.882;2023-12-14T19:04:21;28.33;;;16.52;;
38379;SDS011;38377;47.418;18.882;2023-12-14T19:06:47;29.30;;;16.17;;
38379;SDS011;38377;47.418;18.882;2023-12-14T19:15:15;33.20;;;17.80;;
38379;SDS011;38377;47.418;18.882;2023-12-14T19:25:07;30.63;;;17.27;;
38379;SDS011;38377;47.418;18.882;2023-12-14T19:27:40;25.63;;;14.20;;
38379;SDS011;38377;47.418;18.882;2023-12-14T19:30:12;32.53;;;18.55;;
38379;SDS011;38377;47.418;18.882;2023-12-14T19:32:43;33.38;;;19.08;;
38379;SDS011;38377;47.418;18.882;2023-12-14T19:35:14;36.40;;;18.95;;
38379;SDS011;38377;47.418;18.882;2023-12-14T19:37:46;32.15;;;18.45;;
38379;SDS011;38377;47.418;18.882;2023-12-14T19:40:18;31.75;;;18.35;;
38379;SDS011;38377;47.418;18.882;2023-12-14T19:42:45;32.33;;;17.87;;
38379;SDS011;38377;47.418;18.882;2023-12-14T19:45:11;31.73;;;17.20;;
38379;SDS011;38377;47.418;18.882;2023-12-14T19:47:36;33.13;;;19.35;;
38379;SDS011;38377;47.418;18.882;2023-12-14T19:50:06;32.53;;;18.05;;
38379;SDS011;38377;47.418;18.882;2023-12-14T19:52:32;35.72;;;17.95;;
38379;SDS011;38377;47.418;18.882;2023-12-14T19:55:00;28.95;;;17.02;;
38379;SDS011;38377;47.418;18.882;2023-12-14T19:57:28;27.23;;;15.38;;
38379;SDS011;38377;47.418;18.882;2023-12-14T19:59:54;29.67;;;16.90;;
38379;SDS011;38377;47.418;18.882;2023-12-14T20:02:20;29.23;;;17.75;;
38379;SDS011;38377;47.418;18.882;2023-12-14T20:04:51;28.35;;;15.70;;
38379;SDS011;38377;47.418;18.882;2023-12-14T20:07:19;30.95;;;16.85;;
38379;SDS011;38377;47.418;18.882;2023-12-14T20:09:45;29.55;;;16.58;;
38379;SDS011;38377;47.418;18.882;2023-12-14T20:12:14;30.07;;;17.07;;
38379;SDS011;38377;47.418;18.882;2023-12-14T20:14:40;27.52;;;16.88;;
38379;SDS011;38377;47.418;18.882;2023-12-14T20:17:06;29.13;;;16.37;;
38379;SDS011;38377;47.418;18.882;2023-12-14T20:19:32;26.67;;;16.70;;
38379;SDS011;38377;47.418;18.882;2023-12-14T20:21:57;29.58;;;17.58;;
38379;SDS011;38377;47.418;18.882;2023-12-14T20:24:29;30.67;;;17.20;;
38379;SDS011;38377;47.418;18.882;2023-12-14T20:26:57;26.50;;;15.20;;
38379;SDS011;38377;47.418;18.882;2023-12-14T20:29:23;31.13;;;16.77;;
38379;SDS011;38377;47.418;18.882;2023-12-14T20:31:49;29.80;;;16.77;;
38379;SDS011;38377;47.418;18.882;2023-12-14T20:34:18;26.77;;;15.93;;
38379;SDS011;38377;47.418;18.882;2023-12-14T20:36:46;27.20;;;15.70;;
38379;SDS011;38377;47.418;18.882;2023-12-14T20:39:16;30.92;;;16.63;;
38379;SDS011;38377;47.418;18.882;2023-12-14T20:41:47;30.55;;;16.58;;
38379;SDS011;38377;47.418;18.882;2023-12-14T20:44:15;31.80;;;16.95;;
38379;SDS011;38377;47.418;18.882;2023-12-14T20:46:46;30.25;;;16.45;;
38379;SDS011;38377;47.418;18.882;2023-12-14T20:49:14;30.70;;;17.35;;
38379;SDS011;38377;47.418;18.882;2023-12-14T20:51:40;31.50;;;16.80;;
38379;SDS011;38377;47.418;18.882;2023-12-14T20:54:07;35.67;;;18.27;;
38379;SDS011;38377;47.418;18.882;2023-12-14T20:56:33;29.55;;;17.05;;
38379;SDS011;38377;47.418;18.882;2023-12-14T20:59:02;35.20;;;17.52;;
38379;SDS011;38377;47.418;18.882;2023-12-14T21:01:29;30.55;;;16.52;;
38379;SDS011;38377;47.418;18.882;2023-12-14T21:03:57;31.30;;;17.63;;
38379;SDS011;38377;47.418;18.882;2023-12-14T21:06:33;31.65;;;17.30;;
38379;SDS011;38377;47.418;18.882;2023-12-14T21:09:04;32.03;;;17.80;;
38379;SDS011;38377;47.418;18.882;2023-12-14T21:11:30;33.90;;;17.67;;
38379;SDS011;38377;47.418;18.882;2023-12-14T21:13:59;30.55;;;17.23;;
38379;SDS011;38377;47.418;18.882;2023-12-14T21:16:27;30.05;;;18.15;;
38379;SDS011;38377;47.418;18.882;2023-12-14T21:18:53;32.00;;;17.23;;
38379;SDS011;38377;47.418;18.882;2023-12-14T21:21:19;30.33;;;16.10;;
38379;SDS011;38377;47.418;18.882;2023-12-14T21:23:45;30.77;;;16.45;;
38379;SDS011;38377;47.418;18.882;2023-12-14T21:26:11;32.50;;;17.92;;
38379;SDS011;38377;47.418;18.882;2023-12-14T21:28:40;28.90;;;16.52;;
38379;SDS011;38377;47.418;18.882;2023-12-14T21:31:06;29.75;;;17.00;;
38379;SDS011;38377;47.418;18.882;2023-12-14T21:33:35;33.33;;;17.92;;
38379;SDS011;38377;47.418;18.882;2023-12-14T21:36:06;32.72;;;17.20;;
38379;SDS011;38377;47.418;18.882;2023-12-14T21:38:35;35.13;;;17.30;;
38379;SDS011;38377;47.418;18.882;2023-12-14T21:41:04;34.35;;;17.70;;
38379;SDS011;38377;47.418;18.882;2023-12-14T21:43:36;31.90;;;16.80;;
38379;SDS011;38377;47.418;18.882;2023-12-14T21:46:05;29.65;;;16.33;;
38379;SDS011;38377;47.418;18.882;2023-12-14T21:48:31;30.45;;;16.50;;
38379;SDS011;38377;47.418;18.882;2023-12-14T21:50:57;30.52;;;15.90;;
38379;SDS011;38377;47.418;18.882;2023-12-14T21:53:23;33.95;;;17.55;;
38379;SDS011;38377;47.418;18.882;2023-12-14T21:55:51;30.02;;;15.25;;
38379;SDS011;38377;47.418;18.882;2023-12-14T21:58:17;28.65;;;16.20;;
38379;SDS011;38377;47.418;18.882;2023-12-14T22:00:43;30.27;;;17.15;;
38379;SDS011;38377;47.418;18.882;2023-12-14T22:03:11;30.65;;;15.23;;
38379;SDS011;38377;47.418;18.882;2023-12-14T22:05:43;25.83;;;15.02;;
38379;SDS011;38377;47.418;18.882;2023-12-14T22:08:21;28.98;;;15.07;;
38379;SDS011;38377;47.418;18.882;2023-12-14T22:10:51;27.25;;;15.75;;
38379;SDS011;38377;47.418;18.882;2023-12-14T22:13:23;28.95;;;14.80;;
38379;SDS011;38377;47.418;18.882;2023-12-14T22:15:49;29.75;;;15.23;;
38379;SDS011;38377;47.418;18.882;2023-12-14T22:18:28;29.95;;;15.73;;
38379;SDS011;38377;47.418;18.882;2023-12-14T22:20:54;29.85;;;15.85;;
38379;SDS011;38377;47.418;18.882;2023-12-14T22:23:20;28.92;;;15.82;;
38379;SDS011;38377;47.418;18.882;2023-12-14T22:25:46;28.85;;;15.32;;
38379;SDS011;38377;47.418;18.882;2023-12-14T22:28:12;28.40;;;14.63;;
38379;SDS011;38377;47.418;18.882;2023-12-14T22:30:37;26.23;;;14.52;;
38379;SDS011;38377;47.418;18.882;2023-12-14T22:33:03;31.88;;;16.33;;
38379;SDS011;38377;47.418;18.882;2023-12-14T22:35:29;26.13;;;14.55;;
38379;SDS011;38377;47.418;18.882;2023-12-14T22:37:55;29.30;;;15.80;;
38379;SDS011;38377;47.418;18.882;2023-12-14T22:40:20;29.75;;;15.35;;
38379;SDS011;38377;47.418;18.882;2023-12-14T22:42:46;29.10;;;15.27;;
38379;SDS011;38377;47.418;18.882;2023-12-14T22:45:24;31.33;;;15.70;;
38379;SDS011;38377;47.418;18.882;2023-12-14T22:47:52;30.20;;;16.38;;
38379;SDS011;38377;47.418;18.882;2023-12-14T22:50:19;32.05;;;16.42;;
38379;SDS011;38377;47.418;18.882;2023-12-14T22:52:45;29.30;;;15.95;;
38379;SDS011;38377;47.418;18.882;2023-12-14T22:55:11;30.92;;;15.98;;
38379;SDS011;38377;47.418;18.882;2023-12-14T22:57:39;31.98;;;16.73;;
38379;SDS011;38377;47.418;18.882;2023-12-14T23:00:09;31.15;;;16.13;;
38379;SDS011;38377;47.418;18.882;2023-12-14T23:02:39;32.33;;;16.58;;
38379;SDS011;38377;47.418;18.882;2023-12-14T23:05:06;32.30;;;16.85;;
38379;SDS011;38377;47.418;18.882;2023-12-14T23:07:32;33.30;;;16.70;;
38379;SDS011;38377;47.418;18.882;2023-12-14T23:09:58;30.77;;;16.75;;
38379;SDS011;38377;47.418;18.882;2023-12-14T23:12:25;25.55;;;14.55;;
38379;SDS011;38377;47.418;18.882;2023-12-14T23:14:56;30.95;;;16.27;;
38379;SDS011;38377;47.418;18.882;2023-12-14T23:17:22;30.67;;;16.88;;
38379;SDS011;38377;47.418;18.882;2023-12-14T23:19:48;29.67;;;16.60;;
38379;SDS011;38377;47.418;18.882;2023-12-14T23:22:14;29.45;;;15.93;;
38379;SDS011;38377;47.418;18.882;2023-12-14T23:24:40;27.23;;;14.55;;
38379;SDS011;38377;47.418;18.882;2023-12-14T23:27:05;27.98;;;15.35;;
38379;SDS011;38377;47.418;18.882;2023-12-14T23:29:31;30.55;;;16.95;;
38379;SDS011;38377;47.418;18.882;2023-12-14T23:31:57;30.00;;;16.35;;
38379;SDS011;38377;47.418;18.882;2023-12-14T23:34:23;30.75;;;15.65;;
38379;SDS011;38377;47.418;18.882;2023-12-14T23:36:48;31.55;;;17.00;;
38379;SDS011;38377;47.418;18.882;2023-12-14T23:39:14;32.40;;;16.63;;
38379;SDS011;38377;47.418;18.882;2023-12-14T23:41:42;27.10;;;14.57;;
38379;SDS011;38377;47.418;18.882;2023-12-14T23:44:08;28.45;;;15.55;;
38379;SDS011;38377;47.418;18.882;2023-12-14T23:46:34;29.35;;;15.45;;
38379;SDS011;38377;47.418;18.882;2023-12-14T23:48:59;30.15;;;15.82;;
38379;SDS011;38377;47.418;18.882;2023-12-14T23:51:25;28.70;;;15.82;;
38379;SDS011;38377;47.418;18.882;2023-12-14T23:53:51;30.52;;;16.00;;
38379;SDS011;38377;47.418;18.882;2023-12-14T23:56:17;28.70;;;15.75;;
38379;SDS011;38377;47.418;18.882;2023-12-14T23:58:42;29.02;;;15.32;;
